Pagrindinis puslapis
METAR-TAF:

METAR-TAF

Oro uostai :

Senendedžas, Iranas

platuma: 35-20N, ilguma: 047-00E, Aukštis: 1373 m

Dabartinis oras

Ataskaita buvo paskelbta 32 minutes, ne 23:00 UTC
Vėjas 2 kt iš Rytų
Temperatūra 9°C
Drėgmė 57%
Slėgis 1022 hPa
Matomumas 10 km arba daugiau
nėra debesų žemiau 1500 m ir nėra kamuolinių lietaus debesų

METAR: OICS 182300Z 08002KT CAVOK 09/01 Q1022 A3018

Laikas: 03:02 (23:32 UTC)


TAF: trūkstamas

Orai ataskaitas ir orų prognozės (METAR, TAF).

turimą stotys yra geltonos ir raudonos taškus žemėlapyje.

Perkelti pele per norėdami pamatyti stoties vardą.

Tada spustelėkite, norėdami matyti oro stebėjimo ir prognozės.

Norėdami pakeisti žemėlapį: spustelėkite ant žalios mygtukų su juodo kryžiaus žemyn,; žalią mygtuką su brūkšneliu, jei norite nutolinti; arba žalių rodyklių gretimoms žemėlapius.


METAR-TAF: